sensor_id;sensor_type;location;lat;lon;timestamp;P1;durP1;ratioP1;P2;durP2;ratioP2
59074;SDS011;44860;53.020;6.738;2023-04-01T00:01:32;9.23;;;7.60;;
59074;SDS011;44860;53.020;6.738;2023-04-01T00:03:58;9.07;;;6.90;;
59074;SDS011;44860;53.020;6.738;2023-04-01T00:06:24;9.73;;;6.82;;
59074;SDS011;44860;53.020;6.738;2023-04-01T00:08:49;7.97;;;6.53;;
59074;SDS011;44860;53.020;6.738;2023-04-01T00:11:15;8.20;;;6.57;;
59074;SDS011;44860;53.020;6.738;2023-04-01T00:13:42;9.15;;;6.70;;
59074;SDS011;44860;53.020;6.738;2023-04-01T00:16:08;8.00;;;7.20;;
59074;SDS011;44860;53.020;6.738;2023-04-01T00:18:34;9.35;;;7.32;;
59074;SDS011;44860;53.020;6.738;2023-04-01T00:20:59;8.82;;;7.43;;
59074;SDS011;44860;53.020;6.738;2023-04-01T00:23:25;8.57;;;7.30;;
59074;SDS011;44860;53.020;6.738;2023-04-01T00:25:51;9.50;;;7.35;;
59074;SDS011;44860;53.020;6.738;2023-04-01T00:28:17;9.10;;;7.68;;
59074;SDS011;44860;53.020;6.738;2023-04-01T00:30:44;10.20;;;8.02;;
59074;SDS011;44860;53.020;6.738;2023-04-01T00:33:10;8.18;;;7.10;;
59074;SDS011;44860;53.020;6.738;2023-04-01T00:35:36;8.32;;;7.18;;
59074;SDS011;44860;53.020;6.738;2023-04-01T00:38:02;9.07;;;7.28;;
59074;SDS011;44860;53.020;6.738;2023-04-01T00:40:30;9.38;;;7.20;;
59074;SDS011;44860;53.020;6.738;2023-04-01T00:42:59;11.80;;;8.02;;
59074;SDS011;44860;53.020;6.738;2023-04-01T00:45:29;10.80;;;8.10;;
59074;SDS011;44860;53.020;6.738;2023-04-01T00:47:58;10.27;;;7.13;;
59074;SDS011;44860;53.020;6.738;2023-04-01T00:50:28;8.93;;;7.22;;
59074;SDS011;44860;53.020;6.738;2023-04-01T00:52:55;8.65;;;7.60;;
59074;SDS011;44860;53.020;6.738;2023-04-01T00:55:21;9.20;;;7.45;;
59074;SDS011;44860;53.020;6.738;2023-04-01T00:57:49;9.38;;;7.43;;
59074;SDS011;44860;53.020;6.738;2023-04-01T01:00:17;7.72;;;6.93;;
59074;SDS011;44860;53.020;6.738;2023-04-01T01:02:45;10.15;;;7.90;;
59074;SDS011;44860;53.020;6.738;2023-04-01T01:05:12;10.32;;;7.75;;
59074;SDS011;44860;53.020;6.738;2023-04-01T01:07:54;10.13;;;7.53;;
59074;SDS011;44860;53.020;6.738;2023-04-01T01:10:40;9.88;;;7.55;;
59074;SDS011;44860;53.020;6.738;2023-04-01T01:16:18;8.80;;;7.05;;
59074;SDS011;44860;53.020;6.738;2023-04-01T01:19:07;9.75;;;7.13;;
59074;SDS011;44860;53.020;6.738;2023-04-01T01:22:03;10.35;;;7.70;;
59074;SDS011;44860;53.020;6.738;2023-04-01T01:27:12;8.93;;;7.60;;
59074;SDS011;44860;53.020;6.738;2023-04-01T01:33:18;10.23;;;7.30;;
59074;SDS011;44860;53.020;6.738;2023-04-01T01:35:48;10.23;;;7.55;;
59074;SDS011;44860;53.020;6.738;2023-04-01T01:38:18;10.02;;;6.93;;
59074;SDS011;44860;53.020;6.738;2023-04-01T01:40:49;11.15;;;7.45;;
59074;SDS011;44860;53.020;6.738;2023-04-01T01:43:19;8.45;;;7.10;;
59074;SDS011;44860;53.020;6.738;2023-04-01T01:45:49;8.73;;;7.45;;
59074;SDS011;44860;53.020;6.738;2023-04-01T01:48:20;9.00;;;7.25;;
59074;SDS011;44860;53.020;6.738;2023-04-01T01:50:48;11.43;;;7.88;;
59074;SDS011;44860;53.020;6.738;2023-04-01T01:53:15;9.48;;;7.88;;
59074;SDS011;44860;53.020;6.738;2023-04-01T01:55:42;11.68;;;7.50;;
59074;SDS011;44860;53.020;6.738;2023-04-01T01:58:14;9.88;;;7.00;;
59074;SDS011;44860;53.020;6.738;2023-04-01T02:00:45;9.50;;;6.80;;
59074;SDS011;44860;53.020;6.738;2023-04-01T02:03:16;11.43;;;7.43;;
59074;SDS011;44860;53.020;6.738;2023-04-01T02:05:44;10.30;;;7.50;;
59074;SDS011;44860;53.020;6.738;2023-04-01T02:08:18;9.38;;;7.43;;
59074;SDS011;44860;53.020;6.738;2023-04-01T02:11:07;9.55;;;7.13;;
59074;SDS011;44860;53.020;6.738;2023-04-01T02:13:38;9.52;;;6.65;;
59074;SDS011;44860;53.020;6.738;2023-04-01T02:16:27;10.13;;;6.72;;
59074;SDS011;44860;53.020;6.738;2023-04-01T02:18:57;8.43;;;6.43;;
59074;SDS011;44860;53.020;6.738;2023-04-01T02:21:26;8.07;;;5.88;;
59074;SDS011;44860;53.020;6.738;2023-04-01T02:23:55;8.18;;;6.35;;
59074;SDS011;44860;53.020;6.738;2023-04-01T02:26:23;10.15;;;6.18;;
59074;SDS011;44860;53.020;6.738;2023-04-01T02:28:50;7.65;;;5.68;;
59074;SDS011;44860;53.020;6.738;2023-04-01T02:31:17;5.57;;;4.40;;
59074;SDS011;44860;53.020;6.738;2023-04-01T02:33:43;6.93;;;4.60;;
59074;SDS011;44860;53.020;6.738;2023-04-01T02:36:11;6.35;;;4.47;;
59074;SDS011;44860;53.020;6.738;2023-04-01T02:38:38;6.45;;;4.65;;
59074;SDS011;44860;53.020;6.738;2023-04-01T02:41:05;6.32;;;4.63;;
59074;SDS011;44860;53.020;6.738;2023-04-01T02:43:31;8.38;;;5.20;;
59074;SDS011;44860;53.020;6.738;2023-04-01T02:45:57;5.93;;;4.25;;
59074;SDS011;44860;53.020;6.738;2023-04-01T02:48:23;7.10;;;4.85;;
59074;SDS011;44860;53.020;6.738;2023-04-01T02:50:48;6.20;;;4.40;;
59074;SDS011;44860;53.020;6.738;2023-04-01T02:53:14;5.90;;;4.05;;
59074;SDS011;44860;53.020;6.738;2023-04-01T02:55:40;5.82;;;4.35;;
59074;SDS011;44860;53.020;6.738;2023-04-01T02:58:06;7.25;;;5.07;;
59074;SDS011;44860;53.020;6.738;2023-04-01T03:00:32;7.47;;;5.03;;
59074;SDS011;44860;53.020;6.738;2023-04-01T03:02:57;7.22;;;5.47;;
59074;SDS011;44860;53.020;6.738;2023-04-01T03:05:23;7.32;;;6.05;;
59074;SDS011;44860;53.020;6.738;2023-04-01T03:07:49;9.88;;;7.15;;
59074;SDS011;44860;53.020;6.738;2023-04-01T03:10:15;11.07;;;8.10;;
59074;SDS011;44860;53.020;6.738;2023-04-01T03:12:40;11.52;;;8.93;;
59074;SDS011;44860;53.020;6.738;2023-04-01T03:15:06;10.88;;;9.07;;
59074;SDS011;44860;53.020;6.738;2023-04-01T03:17:34;13.65;;;10.20;;
59074;SDS011;44860;53.020;6.738;2023-04-01T03:20:00;13.05;;;9.85;;
59074;SDS011;44860;53.020;6.738;2023-04-01T03:22:26;11.23;;;10.02;;
59074;SDS011;44860;53.020;6.738;2023-04-01T03:24:51;12.85;;;10.32;;
59074;SDS011;44860;53.020;6.738;2023-04-01T03:27:17;11.73;;;10.52;;
59074;SDS011;44860;53.020;6.738;2023-04-01T03:29:43;12.30;;;10.30;;
59074;SDS011;44860;53.020;6.738;2023-04-01T03:32:08;11.88;;;9.82;;
59074;SDS011;44860;53.020;6.738;2023-04-01T03:34:34;11.90;;;10.18;;
59074;SDS011;44860;53.020;6.738;2023-04-01T03:37:00;12.13;;;9.82;;
59074;SDS011;44860;53.020;6.738;2023-04-01T03:39:25;10.23;;;9.13;;
59074;SDS011;44860;53.020;6.738;2023-04-01T03:41:51;11.93;;;10.15;;
59074;SDS011;44860;53.020;6.738;2023-04-01T03:44:17;11.35;;;9.57;;
59074;SDS011;44860;53.020;6.738;2023-04-01T03:46:42;10.52;;;8.65;;
59074;SDS011;44860;53.020;6.738;2023-04-01T03:49:09;11.82;;;9.20;;
59074;SDS011;44860;53.020;6.738;2023-04-01T03:51:41;10.15;;;8.27;;
59074;SDS011;44860;53.020;6.738;2023-04-01T03:54:08;11.50;;;8.52;;
59074;SDS011;44860;53.020;6.738;2023-04-01T03:56:35;10.20;;;8.55;;
59074;SDS011;44860;53.020;6.738;2023-04-01T03:59:01;9.10;;;8.10;;
59074;SDS011;44860;53.020;6.738;2023-04-01T04:01:28;11.05;;;8.48;;
59074;SDS011;44860;53.020;6.738;2023-04-01T04:03:54;11.57;;;8.68;;
59074;SDS011;44860;53.020;6.738;2023-04-01T04:06:21;9.82;;;8.77;;
59074;SDS011;44860;53.020;6.738;2023-04-01T04:08:48;10.55;;;8.35;;
59074;SDS011;44860;53.020;6.738;2023-04-01T04:11:14;10.18;;;9.02;;
59074;SDS011;44860;53.020;6.738;2023-04-01T04:13:40;11.38;;;9.10;;
59074;SDS011;44860;53.020;6.738;2023-04-01T04:16:06;12.23;;;9.63;;
59074;SDS011;44860;53.020;6.738;2023-04-01T04:18:32;11.57;;;9.65;;
59074;SDS011;44860;53.020;6.738;2023-04-01T04:20:58;12.35;;;9.52;;
59074;SDS011;44860;53.020;6.738;2023-04-01T04:23:23;11.68;;;9.43;;
59074;SDS011;44860;53.020;6.738;2023-04-01T04:26:08;12.93;;;10.13;;
59074;SDS011;44860;53.020;6.738;2023-04-01T04:28:36;11.50;;;9.55;;
59074;SDS011;44860;53.020;6.738;2023-04-01T04:31:02;13.38;;;10.60;;
59074;SDS011;44860;53.020;6.738;2023-04-01T04:33:30;12.77;;;10.38;;
59074;SDS011;44860;53.020;6.738;2023-04-01T04:35:57;12.02;;;10.73;;
59074;SDS011;44860;53.020;6.738;2023-04-01T04:38:23;13.23;;;10.35;;
59074;SDS011;44860;53.020;6.738;2023-04-01T04:40:50;12.43;;;10.45;;
59074;SDS011;44860;53.020;6.738;2023-04-01T04:43:16;13.90;;;11.52;;
59074;SDS011;44860;53.020;6.738;2023-04-01T04:45:42;12.77;;;11.05;;
59074;SDS011;44860;53.020;6.738;2023-04-01T04:48:08;13.38;;;11.50;;
59074;SDS011;44860;53.020;6.738;2023-04-01T04:50:35;13.63;;;11.63;;
59074;SDS011;44860;53.020;6.738;2023-04-01T04:53:01;12.13;;;10.85;;
59074;SDS011;44860;53.020;6.738;2023-04-01T04:55:27;16.92;;;12.27;;
59074;SDS011;44860;53.020;6.738;2023-04-01T04:57:53;13.18;;;11.77;;
59074;SDS011;44860;53.020;6.738;2023-04-01T05:00:18;14.38;;;11.73;;
59074;SDS011;44860;53.020;6.738;2023-04-01T05:02:44;12.90;;;10.95;;
59074;SDS011;44860;53.020;6.738;2023-04-01T05:05:10;12.95;;;11.63;;
59074;SDS011;44860;53.020;6.738;2023-04-01T05:07:36;12.90;;;11.48;;
59074;SDS011;44860;53.020;6.738;2023-04-01T05:10:01;12.30;;;11.00;;
59074;SDS011;44860;53.020;6.738;2023-04-01T05:12:27;11.60;;;10.40;;
59074;SDS011;44860;53.020;6.738;2023-04-01T05:14:53;12.15;;;10.65;;
59074;SDS011;44860;53.020;6.738;2023-04-01T05:17:19;11.45;;;10.10;;
59074;SDS011;44860;53.020;6.738;2023-04-01T05:19:44;12.57;;;10.02;;
59074;SDS011;44860;53.020;6.738;2023-04-01T05:22:10;11.38;;;9.63;;
59074;SDS011;44860;53.020;6.738;2023-04-01T05:24:36;9.45;;;7.60;;
59074;SDS011;44860;53.020;6.738;2023-04-01T05:27:01;9.75;;;8.30;;
59074;SDS011;44860;53.020;6.738;2023-04-01T05:29:27;10.55;;;7.50;;
59074;SDS011;44860;53.020;6.738;2023-04-01T05:31:53;8.73;;;6.93;;
59074;SDS011;44860;53.020;6.738;2023-04-01T05:34:18;9.63;;;7.15;;
59074;SDS011;44860;53.020;6.738;2023-04-01T05:36:44;9.50;;;7.30;;
59074;SDS011;44860;53.020;6.738;2023-04-01T05:39:10;8.52;;;6.93;;
59074;SDS011;44860;53.020;6.738;2023-04-01T05:41:36;8.75;;;7.85;;
59074;SDS011;44860;53.020;6.738;2023-04-01T05:44:03;9.55;;;7.32;;
59074;SDS011;44860;53.020;6.738;2023-04-01T05:46:29;8.95;;;7.57;;
59074;SDS011;44860;53.020;6.738;2023-04-01T05:48:55;9.25;;;8.27;;
59074;SDS011;44860;53.020;6.738;2023-04-01T05:51:21;9.82;;;8.45;;
59074;SDS011;44860;53.020;6.738;2023-04-01T05:53:47;11.00;;;8.52;;
59074;SDS011;44860;53.020;6.738;2023-04-01T05:56:13;11.20;;;8.93;;
59074;SDS011;44860;53.020;6.738;2023-04-01T05:58:39;10.63;;;9.05;;
59074;SDS011;44860;53.020;6.738;2023-04-01T06:01:06;11.40;;;9.15;;
59074;SDS011;44860;53.020;6.738;2023-04-01T06:03:33;12.13;;;10.15;;
59074;SDS011;44860;53.020;6.738;2023-04-01T06:05:59;11.40;;;10.02;;
59074;SDS011;44860;53.020;6.738;2023-04-01T06:08:26;11.02;;;9.82;;
59074;SDS011;44860;53.020;6.738;2023-04-01T06:10:55;13.50;;;11.48;;
59074;SDS011;44860;53.020;6.738;2023-04-01T06:15:53;16.48;;;13.43;;
59074;SDS011;44860;53.020;6.738;2023-04-01T06:21:20;17.40;;;14.20;;
59074;SDS011;44860;53.020;6.738;2023-04-01T06:24:00;20.90;;;15.18;;
59074;SDS011;44860;53.020;6.738;2023-04-01T06:26:34;164.02;;;20.77;;
59074;SDS011;44860;53.020;6.738;2023-04-01T06:32:17;19.42;;;16.33;;
59074;SDS011;44860;53.020;6.738;2023-04-01T06:40:37;20.77;;;15.95;;
59074;SDS011;44860;53.020;6.738;2023-04-01T06:43:41;19.13;;;15.95;;
59074;SDS011;44860;53.020;6.738;2023-04-01T06:54:31;19.27;;;16.63;;
59074;SDS011;44860;53.020;6.738;2023-04-01T06:57:47;22.97;;;16.83;;
59074;SDS011;44860;53.020;6.738;2023-04-01T06:59:52;22.42;;;17.92;;
59074;SDS011;44860;53.020;6.738;2023-04-01T07:04:55;22.80;;;17.23;;
59074;SDS011;44860;53.020;6.738;2023-04-01T07:07:37;20.25;;;16.88;;
59074;SDS011;44860;53.020;6.738;2023-04-01T07:12:58;21.77;;;16.70;;
59074;SDS011;44860;53.020;6.738;2023-04-01T07:15:31;18.63;;;16.33;;
59074;SDS011;44860;53.020;6.738;2023-04-01T07:18:03;20.63;;;16.85;;
59074;SDS011;44860;53.020;6.738;2023-04-01T07:20:36;23.00;;;17.70;;
59074;SDS011;44860;53.020;6.738;2023-04-01T07:23:04;21.30;;;17.88;;
59074;SDS011;44860;53.020;6.738;2023-04-01T07:25:37;22.60;;;17.95;;
59074;SDS011;44860;53.020;6.738;2023-04-01T07:28:12;27.67;;;21.17;;
59074;SDS011;44860;53.020;6.738;2023-04-01T07:33:39;24.75;;;17.70;;
59074;SDS011;44860;53.020;6.738;2023-04-01T07:52:06;23.95;;;16.55;;
59074;SDS011;44860;53.020;6.738;2023-04-01T07:55:06;19.73;;;16.40;;
59074;SDS011;44860;53.020;6.738;2023-04-01T08:05:55;19.83;;;14.65;;
59074;SDS011;44860;53.020;6.738;2023-04-01T08:21:45;20.52;;;15.55;;
59074;SDS011;44860;53.020;6.738;2023-04-01T08:24:20;15.85;;;12.55;;
59074;SDS011;44860;53.020;6.738;2023-04-01T08:27:01;15.65;;;12.68;;
59074;SDS011;44860;53.020;6.738;2023-04-01T08:32:36;16.85;;;12.32;;
59074;SDS011;44860;53.020;6.738;2023-04-01T08:35:25;16.75;;;13.77;;
59074;SDS011;44860;53.020;6.738;2023-04-01T08:37:56;17.90;;;13.27;;
59074;SDS011;44860;53.020;6.738;2023-04-01T08:43:16;16.50;;;13.15;;
59074;SDS011;44860;53.020;6.738;2023-04-01T08:49:04;14.85;;;11.48;;
59074;SDS011;44860;53.020;6.738;2023-04-01T08:54:38;16.70;;;12.75;;
59074;SDS011;44860;53.020;6.738;2023-04-01T09:08:18;17.83;;;14.05;;
59074;SDS011;44860;53.020;6.738;2023-04-01T09:16:39;16.25;;;13.52;;
59074;SDS011;44860;53.020;6.738;2023-04-01T09:19:48;15.95;;;13.35;;
59074;SDS011;44860;53.020;6.738;2023-04-01T09:22:21;16.42;;;13.07;;
59074;SDS011;44860;53.020;6.738;2023-04-01T09:33:43;17.35;;;14.27;;
59074;SDS011;44860;53.020;6.738;2023-04-01T09:36:47;17.90;;;14.57;;
59074;SDS011;44860;53.020;6.738;2023-04-01T09:39:35;16.73;;;14.43;;
59074;SDS011;44860;53.020;6.738;2023-04-01T09:44:53;17.05;;;14.55;;
59074;SDS011;44860;53.020;6.738;2023-04-01T09:50:52;12.88;;;10.95;;
59074;SDS011;44860;53.020;6.738;2023-04-01T09:53:39;11.60;;;9.18;;
59074;SDS011;44860;53.020;6.738;2023-04-01T09:59:32;8.85;;;7.50;;
59074;SDS011;44860;53.020;6.738;2023-04-01T10:10:48;10.00;;;8.70;;
59074;SDS011;44860;53.020;6.738;2023-04-01T10:16:21;6.70;;;5.13;;
59074;SDS011;44860;53.020;6.738;2023-04-01T10:35:05;6.97;;;5.43;;
59074;SDS011;44860;53.020;6.738;2023-04-01T10:37:48;6.40;;;5.47;;
59074;SDS011;44860;53.020;6.738;2023-04-01T10:49:10;4.72;;;4.22;;
59074;SDS011;44860;53.020;6.738;2023-04-01T10:54:58;9.40;;;6.80;;
59074;SDS011;44860;53.020;6.738;2023-04-01T11:28:27;4.45;;;3.60;;
59074;SDS011;44860;53.020;6.738;2023-04-01T11:31:16;4.55;;;3.65;;
59074;SDS011;44860;53.020;6.738;2023-04-01T11:34:15;3.90;;;3.50;;
59074;SDS011;44860;53.020;6.738;2023-04-01T11:37:02;4.53;;;3.88;;
59074;SDS011;44860;53.020;6.738;2023-04-01T11:39:46;3.63;;;3.33;;
59074;SDS011;44860;53.020;6.738;2023-04-01T11:42:28;3.85;;;3.42;;
59074;SDS011;44860;53.020;6.738;2023-04-01T11:48:17;5.30;;;4.70;;
59074;SDS011;44860;53.020;6.738;2023-04-01T11:56:59;3.67;;;3.38;;
59074;SDS011;44860;53.020;6.738;2023-04-01T11:59:51;4.45;;;3.85;;
59074;SDS011;44860;53.020;6.738;2023-04-01T12:08:36;5.38;;;4.63;;
59074;SDS011;44860;53.020;6.738;2023-04-01T12:28:36;4.80;;;3.03;;
59074;SDS011;44860;53.020;6.738;2023-04-01T12:36:42;4.75;;;3.80;;
59074;SDS011;44860;53.020;6.738;2023-04-01T12:42:23;4.13;;;3.73;;
59074;SDS011;44860;53.020;6.738;2023-04-01T12:45:35;12.20;;;10.27;;
59074;SDS011;44860;53.020;6.738;2023-04-01T13:02:44;5.67;;;4.20;;
59074;SDS011;44860;53.020;6.738;2023-04-01T13:08:42;4.03;;;3.63;;
59074;SDS011;44860;53.020;6.738;2023-04-01T13:14:14;3.60;;;3.30;;
59074;SDS011;44860;53.020;6.738;2023-04-01T13:19:35;3.97;;;3.28;;
59074;SDS011;44860;53.020;6.738;2023-04-01T13:22:22;3.30;;;2.90;;
59074;SDS011;44860;53.020;6.738;2023-04-01T13:25:17;3.00;;;2.70;;
59074;SDS011;44860;53.020;6.738;2023-04-01T13:28:09;3.20;;;2.90;;
59074;SDS011;44860;53.020;6.738;2023-04-01T13:33:33;5.25;;;3.45;;
59074;SDS011;44860;53.020;6.738;2023-04-01T13:36:43;4.88;;;3.40;;
59074;SDS011;44860;53.020;6.738;2023-04-01T13:44:46;4.07;;;3.10;;
59074;SDS011;44860;53.020;6.738;2023-04-01T13:55:48;3.00;;;2.70;;
59074;SDS011;44860;53.020;6.738;2023-04-01T14:04:30;2.50;;;2.30;;
59074;SDS011;44860;53.020;6.738;2023-04-01T14:12:38;2.00;;;1.90;;
59074;SDS011;44860;53.020;6.738;2023-04-01T14:20:40;13.18;;;9.20;;
59074;SDS011;44860;53.020;6.738;2023-04-01T14:23:56;2.67;;;2.45;;
59074;SDS011;44860;53.020;6.738;2023-04-01T14:34:50;3.15;;;2.70;;
59074;SDS011;44860;53.020;6.738;2023-04-01T14:45:46;2.53;;;2.33;;
59074;SDS011;44860;53.020;6.738;2023-04-01T14:48:48;3.00;;;1.98;;
59074;SDS011;44860;53.020;6.738;2023-04-01T14:51:19;5.10;;;4.10;;
59074;SDS011;44860;53.020;6.738;2023-04-01T14:56:41;2.83;;;2.42;;
59074;SDS011;44860;53.020;6.738;2023-04-01T15:01:47;2.70;;;2.50;;
59074;SDS011;44860;53.020;6.738;2023-04-01T15:07:18;3.20;;;2.90;;
59074;SDS011;44860;53.020;6.738;2023-04-01T15:13:14;2.85;;;2.60;;
59074;SDS011;44860;53.020;6.738;2023-04-01T15:26:33;4.95;;;2.30;;
59074;SDS011;44860;53.020;6.738;2023-04-01T15:29:30;2.58;;;2.35;;
59074;SDS011;44860;53.020;6.738;2023-04-01T15:34:57;4.63;;;3.10;;
59074;SDS011;44860;53.020;6.738;2023-04-01T15:51:51;5.32;;;3.67;;
59074;SDS011;44860;53.020;6.738;2023-04-01T16:14:33;7.07;;;5.43;;
59074;SDS011;44860;53.020;6.738;2023-04-01T16:22:40;5.82;;;5.10;;
59074;SDS011;44860;53.020;6.738;2023-04-01T16:33:52;8.73;;;6.35;;
59074;SDS011;44860;53.020;6.738;2023-04-01T16:36:33;6.47;;;4.90;;
59074;SDS011;44860;53.020;6.738;2023-04-01T16:41:51;6.90;;;4.90;;
59074;SDS011;44860;53.020;6.738;2023-04-01T16:51:26;7.35;;;5.38;;
59074;SDS011;44860;53.020;6.738;2023-04-01T16:54:28;7.97;;;5.57;;
59074;SDS011;44860;53.020;6.738;2023-04-01T17:02:38;7.70;;;5.55;;
59074;SDS011;44860;53.020;6.738;2023-04-01T17:05:12;8.85;;;5.97;;
59074;SDS011;44860;53.020;6.738;2023-04-01T17:16:48;9.43;;;6.47;;
59074;SDS011;44860;53.020;6.738;2023-04-01T17:24:34;7.47;;;6.03;;
59074;SDS011;44860;53.020;6.738;2023-04-01T17:29:55;7.85;;;6.40;;
59074;SDS011;44860;53.020;6.738;2023-04-01T17:32:40;9.88;;;6.82;;
59074;SDS011;44860;53.020;6.738;2023-04-01T17:35:18;9.73;;;6.78;;
59074;SDS011;44860;53.020;6.738;2023-04-01T17:38:07;10.02;;;7.03;;
59074;SDS011;44860;53.020;6.738;2023-04-01T17:43:45;12.38;;;7.72;;
59074;SDS011;44860;53.020;6.738;2023-04-01T17:54:21;9.13;;;7.07;;
59074;SDS011;44860;53.020;6.738;2023-04-01T17:59:57;9.90;;;7.15;;
59074;SDS011;44860;53.020;6.738;2023-04-01T18:16:59;11.13;;;8.38;;
59074;SDS011;44860;53.020;6.738;2023-04-01T18:22:19;11.10;;;7.80;;
59074;SDS011;44860;53.020;6.738;2023-04-01T18:24:59;9.13;;;7.30;;
59074;SDS011;44860;53.020;6.738;2023-04-01T18:27:38;9.80;;;7.70;;
59074;SDS011;44860;53.020;6.738;2023-04-01T18:30:17;10.00;;;7.55;;
59074;SDS011;44860;53.020;6.738;2023-04-01T18:32:58;10.20;;;7.07;;
59074;SDS011;44860;53.020;6.738;2023-04-01T18:38:20;9.68;;;7.00;;
59074;SDS011;44860;53.020;6.738;2023-04-01T18:52:10;10.65;;;7.32;;
59074;SDS011;44860;53.020;6.738;2023-04-01T18:57:38;10.90;;;7.50;;
59074;SDS011;44860;53.020;6.738;2023-04-01T19:03:02;12.38;;;7.63;;
59074;SDS011;44860;53.020;6.738;2023-04-01T19:05:36;11.73;;;7.85;;
59074;SDS011;44860;53.020;6.738;2023-04-01T19:18:44;12.55;;;7.63;;
59074;SDS011;44860;53.020;6.738;2023-04-01T19:21:15;11.25;;;7.43;;
59074;SDS011;44860;53.020;6.738;2023-04-01T19:26:49;13.57;;;8.02;;
59074;SDS011;44860;53.020;6.738;2023-04-01T19:40:51;13.57;;;8.15;;
59074;SDS011;44860;53.020;6.738;2023-04-01T19:51:48;12.27;;;8.68;;
59074;SDS011;44860;53.020;6.738;2023-04-01T19:54:39;18.40;;;11.80;;
59074;SDS011;44860;53.020;6.738;2023-04-01T20:00:04;13.40;;;9.00;;
59074;SDS011;44860;53.020;6.738;2023-04-01T20:02:55;15.00;;;9.48;;
59074;SDS011;44860;53.020;6.738;2023-04-01T20:08:24;18.00;;;10.23;;
59074;SDS011;44860;53.020;6.738;2023-04-01T20:11:11;16.23;;;9.57;;
59074;SDS011;44860;53.020;6.738;2023-04-01T20:22:05;15.80;;;9.48;;
59074;SDS011;44860;53.020;6.738;2023-04-01T20:24:47;16.27;;;10.05;;
59074;SDS011;44860;53.020;6.738;2023-04-01T20:27:17;14.48;;;9.05;;
59074;SDS011;44860;53.020;6.738;2023-04-01T20:30:07;14.93;;;9.07;;
59074;SDS011;44860;53.020;6.738;2023-04-01T20:35:44;12.98;;;8.68;;
59074;SDS011;44860;53.020;6.738;2023-04-01T20:41:33;15.25;;;8.57;;
59074;SDS011;44860;53.020;6.738;2023-04-01T20:44:09;11.60;;;7.57;;
59074;SDS011;44860;53.020;6.738;2023-04-01T20:46:56;14.32;;;8.30;;
59074;SDS011;44860;53.020;6.738;2023-04-01T20:49:32;14.73;;;7.97;;
59074;SDS011;44860;53.020;6.738;2023-04-01T21:13:47;11.55;;;6.93;;
59074;SDS011;44860;53.020;6.738;2023-04-01T21:16:23;11.05;;;6.55;;
59074;SDS011;44860;53.020;6.738;2023-04-01T21:24:52;10.95;;;7.70;;
59074;SDS011;44860;53.020;6.738;2023-04-01T21:30:22;10.63;;;7.93;;
59074;SDS011;44860;53.020;6.738;2023-04-01T21:35:48;11.45;;;7.18;;
59074;SDS011;44860;53.020;6.738;2023-04-01T22:00:31;11.02;;;6.90;;
59074;SDS011;44860;53.020;6.738;2023-04-01T22:16:28;11.73;;;6.63;;
59074;SDS011;44860;53.020;6.738;2023-04-01T22:24:37;10.10;;;6.35;;
59074;SDS011;44860;53.020;6.738;2023-04-01T22:27:34;11.73;;;6.70;;
59074;SDS011;44860;53.020;6.738;2023-04-01T22:32:45;9.57;;;6.70;;
59074;SDS011;44860;53.020;6.738;2023-04-01T22:43:51;8.45;;;5.90;;
59074;SDS011;44860;53.020;6.738;2023-04-01T22:51:52;8.93;;;6.18;;
59074;SDS011;44860;53.020;6.738;2023-04-01T22:54:31;10.48;;;6.55;;
59074;SDS011;44860;53.020;6.738;2023-04-01T22:57:10;9.35;;;6.10;;
59074;SDS011;44860;53.020;6.738;2023-04-01T23:00:06;13.93;;;6.10;;
59074;SDS011;44860;53.020;6.738;2023-04-01T23:02:59;9.82;;;6.22;;
59074;SDS011;44860;53.020;6.738;2023-04-01T23:05:33;9.73;;;6.72;;
59074;SDS011;44860;53.020;6.738;2023-04-01T23:10:56;10.43;;;6.55;;
59074;SDS011;44860;53.020;6.738;2023-04-01T23:13:27;10.68;;;6.38;;
59074;SDS011;44860;53.020;6.738;2023-04-01T23:15:59;10.43;;;6.53;;
59074;SDS011;44860;53.020;6.738;2023-04-01T23:29:03;11.43;;;6.53;;
59074;SDS011;44860;53.020;6.738;2023-04-01T23:31:36;9.07;;;6.18;;
59074;SDS011;44860;53.020;6.738;2023-04-01T23:39:18;8.48;;;5.80;;
59074;SDS011;44860;53.020;6.738;2023-04-01T23:41:48;9.93;;;6.50;;
59074;SDS011;44860;53.020;6.738;2023-04-01T23:44:16;8.52;;;5.82;;
59074;SDS011;44860;53.020;6.738;2023-04-01T23:46:42;11.13;;;6.43;;
59074;SDS011;44860;53.020;6.738;2023-04-01T23:49:45;10.30;;;5.85;;
59074;SDS011;44860;53.020;6.738;2023-04-01T23:52:22;9.13;;;6.20;;
59074;SDS011;44860;53.020;6.738;2023-04-01T23:54:51;9.38;;;6.20;;
59074;SDS011;44860;53.020;6.738;2023-04-01T23:57:27;8.10;;;6.07;;
